createdAt,value
2018-09-17T00:05:11.000Z,51.3
2018-09-17T00:15:11.000Z,51.1
2018-09-17T00:25:11.000Z,51.1
2018-09-17T00:35:12.000Z,51.1
2018-09-17T00:45:11.000Z,51.4
2018-09-17T00:55:11.000Z,51.7
2018-09-17T01:05:11.000Z,51.6
2018-09-17T01:15:11.000Z,51.9
2018-09-17T01:25:11.000Z,52
2018-09-17T01:35:11.000Z,52.1
2018-09-17T01:45:11.000Z,51.7
2018-09-17T01:55:11.000Z,52.1
2018-09-17T02:05:11.000Z,52.2
2018-09-17T02:15:11.000Z,51.7
2018-09-17T02:25:11.000Z,51.5
2018-09-17T02:35:11.000Z,51.3
2018-09-17T02:45:11.000Z,51.1
2018-09-17T02:55:11.000Z,51.1
2018-09-17T03:05:11.000Z,51.2
2018-09-17T03:15:11.000Z,51.1
2018-09-17T03:25:11.000Z,51.3
2018-09-17T03:35:11.000Z,51.5
2018-09-17T03:45:11.000Z,51.7
2018-09-17T03:55:11.000Z,51.6
2018-09-17T04:05:11.000Z,51.8
2018-09-17T04:15:12.000Z,52
2018-09-17T04:25:12.000Z,51.6
2018-09-17T04:35:12.000Z,51.5
2018-09-17T04:45:11.000Z,51.6
2018-09-17T04:55:11.000Z,51.2
2018-09-17T05:05:12.000Z,50.8
2018-09-17T05:15:12.000Z,50.7
2018-09-17T05:25:12.000Z,50.7
2018-09-17T05:35:12.000Z,50.8
2018-09-17T05:45:12.000Z,50.8
2018-09-17T05:55:12.000Z,50.6
2018-09-17T06:05:12.000Z,50.5
2018-09-17T06:15:12.000Z,50.5
2018-09-17T06:25:12.000Z,50.3
2018-09-17T06:35:12.000Z,50.3
2018-09-17T06:45:12.000Z,50.1
2018-09-17T06:55:12.000Z,50.2
2018-09-17T07:05:12.000Z,50.1
2018-09-17T07:15:12.000Z,49.7
2018-09-17T07:25:12.000Z,49.6
2018-09-17T07:35:12.000Z,49.4
2018-09-17T07:45:12.000Z,49.1
2018-09-17T07:55:12.000Z,48.8
2018-09-17T08:05:12.000Z,48.8
2018-09-17T08:15:12.000Z,50.1
2018-09-17T08:25:12.000Z,50.8
2018-09-17T08:35:12.000Z,51.2
2018-09-17T08:45:12.000Z,51.4
2018-09-17T08:55:12.000Z,51.6
2018-09-17T09:05:12.000Z,51.9
2018-09-17T09:15:12.000Z,52.1
2018-09-17T09:25:12.000Z,52.2
2018-09-17T09:35:12.000Z,52.1
2018-09-17T09:45:12.000Z,52.3
2018-09-17T09:55:12.000Z,52.3
2018-09-17T10:05:12.000Z,52.6
2018-09-17T10:15:12.000Z,52.6
2018-09-17T10:25:12.000Z,52.7
2018-09-17T10:35:12.000Z,52.6
2018-09-17T10:45:12.000Z,52.5
2018-09-17T10:55:12.000Z,52.6
2018-09-17T11:05:12.000Z,52.6
2018-09-17T11:15:13.000Z,52.4
2018-09-17T11:25:13.000Z,52.5
2018-09-17T11:35:13.000Z,52.4
2018-09-17T11:45:13.000Z,52.4
2018-09-17T11:55:13.000Z,52.2
2018-09-17T12:05:13.000Z,52.1
2018-09-17T12:15:13.000Z,52.3
2018-09-17T12:25:13.000Z,52.2
2018-09-17T12:35:13.000Z,52.2
2018-09-17T12:45:13.000Z,50.5
2018-09-17T12:55:13.000Z,51.1
2018-09-17T13:05:13.000Z,52
2018-09-17T13:15:13.000Z,51.4
2018-09-17T13:25:13.000Z,51.4
2018-09-17T13:35:13.000Z,51.4
2018-09-17T13:45:13.000Z,51
2018-09-17T13:55:13.000Z,51.1
2018-09-17T14:05:13.000Z,52.2
2018-09-17T14:15:13.000Z,52.6
2018-09-17T14:25:13.000Z,52.6
2018-09-17T14:35:13.000Z,52.2
2018-09-17T14:45:13.000Z,52.2
2018-09-17T14:55:13.000Z,51.6
2018-09-17T15:05:13.000Z,49.9
2018-09-17T15:15:13.000Z,50.3
2018-09-17T15:25:13.000Z,51.7
2018-09-17T15:35:13.000Z,52.8
2018-09-17T15:45:13.000Z,54
2018-09-17T15:55:13.000Z,54.4
2018-09-17T16:05:13.000Z,54.3
2018-09-17T16:15:13.000Z,56.3
2018-09-17T16:25:13.000Z,57
2018-09-17T16:35:13.000Z,58.1
2018-09-17T16:45:13.000Z,58.7
2018-09-17T16:55:13.000Z,58.3
2018-09-17T17:05:14.000Z,58.6
2018-09-17T17:15:13.000Z,59
2018-09-17T17:25:13.000Z,58.9
2018-09-17T17:35:13.000Z,59.2
2018-09-17T17:45:13.000Z,59.6
2018-09-17T17:55:13.000Z,59.5
2018-09-17T18:05:14.000Z,59.5
2018-09-17T18:15:14.000Z,60
2018-09-17T18:25:14.000Z,59.4
2018-09-17T18:35:14.000Z,60.8
2018-09-17T18:45:14.000Z,60.7
2018-09-17T18:55:14.000Z,60.5
2018-09-17T19:05:14.000Z,61.2
2018-09-17T19:15:14.000Z,61.3
2018-09-17T19:25:14.000Z,62.3
2018-09-17T19:35:17.000Z,62.6
2018-09-17T19:45:14.000Z,62.7
2018-09-17T19:55:14.000Z,63.5
2018-09-17T20:05:14.000Z,63.1
2018-09-17T20:15:14.000Z,60.7
2018-09-17T20:25:14.000Z,53
